Terminal Aerodrome Forecast
Issued by NWS Columbia, SC

Home | Current Version | Previous Version | Text Only | Print | Product List | Glossary On
Versions: 1 2 3 4 5 6 7 8 9 10 11 12 13 14 15 16 17 18 19 20 21 22 23 24 25 26 27 28 29 30 31 32 33
000
FTUS42 KCAE 252046 AAA
TAFCAE
TAF AMD
KCAE 252046Z 2521/2618 14008KT P6SM BKN070
     FM260300 12005KT P6SM BKN100
     FM260700 14004KT P6SM SCT025
      TEMPO 2609/2613 5SM BR BKN025
     FM261400 16005KT P6SM BKN035=

USA.gov is the U.S. government's official web portal to all federal, state and local government web resources and services.